sensor_id;sensor_type;location;lat;lon;timestamp;pressure;altitude;pressure_sealevel;temperature;humidity
64717;BME280;51146;50.274;19.000;2023-04-27T17:19:50;98547.22;;;16.48;30.90
64717;BME280;51146;50.274;19.000;2023-04-27T17:22:17;98544.13;;;15.34;30.26
64717;BME280;51146;50.274;19.000;2023-04-27T17:24:44;98553.28;;;14.29;30.25
64717;BME280;51146;50.274;19.000;2023-04-27T17:27:12;98547.88;;;13.39;30.29
64717;BME280;51146;50.274;19.000;2023-04-27T17:29:39;98559.75;;;12.65;30.44
64717;BME280;51146;50.274;19.000;2023-04-27T17:32:06;98549.75;;;12.03;30.61
64717;BME280;51146;50.274;19.000;2023-04-27T17:34:35;98551.84;;;11.56;30.86
64717;BME280;51146;50.274;19.000;2023-04-27T17:37:02;98556.47;;;11.10;31.25
64717;BME280;51146;50.274;19.000;2023-04-27T17:39:30;98559.28;;;10.75;31.60
64717;BME280;51146;50.274;19.000;2023-04-27T17:41:57;98561.63;;;10.44;31.79
64717;BME280;51146;50.274;19.000;2023-04-27T17:44:24;98560.53;;;10.11;31.82
64717;BME280;51146;50.274;19.000;2023-04-27T17:46:50;98562.75;;;9.82;32.10
64717;BME280;51146;50.274;19.000;2023-04-27T17:49:18;98561.25;;;9.53;32.38
64717;BME280;51146;50.274;19.000;2023-04-27T17:51:45;98558.72;;;9.26;32.40
64717;BME280;51146;50.274;19.000;2023-04-27T17:54:12;98564.81;;;9.04;32.63
64717;BME280;51146;50.274;19.000;2023-04-27T17:56:39;98561.47;;;8.88;32.83
64717;BME280;51146;50.274;19.000;2023-04-27T17:59:06;98567.09;;;8.72;32.92
64717;BME280;51146;50.274;19.000;2023-04-27T18:01:37;98569.69;;;8.61;33.04
64717;BME280;51146;50.274;19.000;2023-04-27T18:04:04;98572.38;;;8.48;33.19
64717;BME280;51146;50.274;19.000;2023-04-27T18:06:32;98569.69;;;8.35;33.29
64717;BME280;51146;50.274;19.000;2023-04-27T18:09:01;98577.63;;;8.24;33.38
64717;BME280;51146;50.274;19.000;2023-04-27T18:11:27;98576.50;;;8.13;33.71
64717;BME280;51146;50.274;19.000;2023-04-27T18:13:55;98568.09;;;8.05;33.87
64717;BME280;51146;50.274;19.000;2023-04-27T18:16:23;98584.00;;;7.95;33.52
64717;BME280;51146;50.274;19.000;2023-04-27T18:18:51;98575.56;;;7.87;33.84
64717;BME280;51146;50.274;19.000;2023-04-27T18:21:17;98578.94;;;7.76;33.92
64717;BME280;51146;50.274;19.000;2023-04-27T18:23:44;98580.44;;;7.68;34.33
64717;BME280;51146;50.274;19.000;2023-04-27T18:26:11;98588.88;;;7.62;34.18
64717;BME280;51146;50.274;19.000;2023-04-27T18:28:38;98589.28;;;7.55;34.15
64717;BME280;51146;50.274;19.000;2023-04-27T18:31:15;98589.69;;;7.49;34.34
64717;BME280;51146;50.274;19.000;2023-04-27T18:33:43;98593.56;;;7.45;34.59
64717;BME280;51146;50.274;19.000;2023-04-27T18:36:10;98586.66;;;7.41;34.57
64717;BME280;51146;50.274;19.000;2023-04-27T18:38:37;98597.59;;;7.38;34.82
64717;BME280;51146;50.274;19.000;2023-04-27T18:41:04;98594.34;;;7.33;35.11
64717;BME280;51146;50.274;19.000;2023-04-27T18:43:33;98598.09;;;7.30;34.79
64717;BME280;51146;50.274;19.000;2023-04-27T18:46:03;98598.50;;;7.24;34.96
64717;BME280;51146;50.274;19.000;2023-04-27T18:48:30;98595.22;;;7.19;35.41
64717;BME280;51146;50.274;19.000;2023-04-27T18:50:57;98591.09;;;7.13;35.51
64717;BME280;51146;50.274;19.000;2023-04-27T18:53:25;98595.88;;;7.08;35.67
64717;BME280;51146;50.274;19.000;2023-04-27T18:55:52;98607.91;;;7.03;35.33
64717;BME280;51146;50.274;19.000;2023-04-27T18:58:19;98599.28;;;6.97;35.45
64717;BME280;51146;50.274;19.000;2023-04-27T19:00:45;98596.97;;;6.91;35.96
64717;BME280;51146;50.274;19.000;2023-04-27T19:03:12;98607.22;;;6.85;36.25
64717;BME280;51146;50.274;19.000;2023-04-27T19:05:40;98611.22;;;6.77;35.91
64717;BME280;51146;50.274;19.000;2023-04-27T19:08:10;98611.53;;;6.73;36.07
64717;BME280;51146;50.274;19.000;2023-04-27T19:10:37;98611.91;;;6.67;36.39
64717;BME280;51146;50.274;19.000;2023-04-27T19:13:07;98609.69;;;6.59;36.37
64717;BME280;51146;50.274;19.000;2023-04-27T19:15:34;98614.69;;;6.51;36.34
64717;BME280;51146;50.274;19.000;2023-04-27T19:18:01;98606.91;;;6.46;36.67
64717;BME280;51146;50.274;19.000;2023-04-27T19:20:38;98617.03;;;6.41;36.50
64717;BME280;51146;50.274;19.000;2023-04-27T19:23:05;98620.94;;;6.35;36.94
64717;BME280;51146;50.274;19.000;2023-04-27T19:25:33;98616.81;;;6.30;37.13
64717;BME280;51146;50.274;19.000;2023-04-27T19:28:00;98616.22;;;6.25;37.14
64717;BME280;51146;50.274;19.000;2023-04-27T19:30:27;98624.50;;;6.20;37.46
64717;BME280;51146;50.274;19.000;2023-04-27T19:32:54;98628.53;;;6.13;37.40
64717;BME280;51146;50.274;19.000;2023-04-27T19:35:22;98626.09;;;6.08;37.82
64717;BME280;51146;50.274;19.000;2023-04-27T19:37:50;98630.78;;;6.05;37.65
64717;BME280;51146;50.274;19.000;2023-04-27T19:40:17;98618.50;;;6.00;38.16
64717;BME280;51146;50.274;19.000;2023-04-27T19:42:44;98629.50;;;5.96;38.00
64717;BME280;51146;50.274;19.000;2023-04-27T19:45:11;98628.81;;;5.92;38.08
64717;BME280;51146;50.274;19.000;2023-04-27T19:47:39;98627.34;;;5.87;38.06
64717;BME280;51146;50.274;19.000;2023-04-27T19:50:06;98627.63;;;5.82;38.33
64717;BME280;51146;50.274;19.000;2023-04-27T19:52:34;98625.13;;;5.79;38.91
64717;BME280;51146;50.274;19.000;2023-04-27T19:55:00;98621.75;;;5.75;38.34
64717;BME280;51146;50.274;19.000;2023-04-27T19:57:27;98622.78;;;5.73;38.56
64717;BME280;51146;50.274;19.000;2023-04-27T19:59:56;98624.50;;;5.74;38.45
64717;BME280;51146;50.274;19.000;2023-04-27T20:02:23;98626.34;;;5.73;38.75
64717;BME280;51146;50.274;19.000;2023-04-27T20:04:50;98624.78;;;5.69;38.77
64717;BME280;51146;50.274;19.000;2023-04-27T20:07:17;98623.16;;;5.67;39.08
64717;BME280;51146;50.274;19.000;2023-04-27T20:09:44;98616.22;;;5.62;39.27
64717;BME280;51146;50.274;19.000;2023-04-27T20:12:11;98624.38;;;5.61;39.30
64717;BME280;51146;50.274;19.000;2023-04-27T20:14:57;98623.25;;;5.65;39.24
64717;BME280;51146;50.274;19.000;2023-04-27T20:17:24;98625.31;;;5.60;39.44
64717;BME280;51146;50.274;19.000;2023-04-27T20:19:52;98619.53;;;5.52;39.24
64717;BME280;51146;50.274;19.000;2023-04-27T20:22:22;98626.78;;;5.50;39.49
64717;BME280;51146;50.274;19.000;2023-04-27T20:24:49;98628.84;;;5.45;39.50
64717;BME280;51146;50.274;19.000;2023-04-27T20:27:15;98633.34;;;5.44;39.95
64717;BME280;51146;50.274;19.000;2023-04-27T20:29:42;98629.47;;;5.50;39.68
64717;BME280;51146;50.274;19.000;2023-04-27T20:32:10;98639.75;;;5.57;39.88
64717;BME280;51146;50.274;19.000;2023-04-27T20:34:37;98626.94;;;5.62;39.70
64717;BME280;51146;50.274;19.000;2023-04-27T20:37:05;98638.47;;;5.65;39.86
64717;BME280;51146;50.274;19.000;2023-04-27T20:39:33;98633.75;;;5.68;39.90
64717;BME280;51146;50.274;19.000;2023-04-27T20:42:00;98634.44;;;5.72;40.00
64717;BME280;51146;50.274;19.000;2023-04-27T20:44:27;98635.34;;;5.72;39.74
64717;BME280;51146;50.274;19.000;2023-04-27T20:46:54;98640.50;;;5.75;40.16
64717;BME280;51146;50.274;19.000;2023-04-27T20:49:21;98634.97;;;5.78;40.21
64717;BME280;51146;50.274;19.000;2023-04-27T20:52:00;98633.94;;;5.81;40.40
64717;BME280;51146;50.274;19.000;2023-04-27T20:54:27;98629.34;;;5.83;40.38
64717;BME280;51146;50.274;19.000;2023-04-27T20:56:58;98630.13;;;5.85;40.12
64717;BME280;51146;50.274;19.000;2023-04-27T20:59:28;98636.44;;;5.84;40.22
64717;BME280;51146;50.274;19.000;2023-04-27T21:01:56;98631.78;;;5.88;40.31
64717;BME280;51146;50.274;19.000;2023-04-27T21:04:23;98630.56;;;5.93;40.06
64717;BME280;51146;50.274;19.000;2023-04-27T21:06:49;98624.22;;;5.94;40.28
64717;BME280;51146;50.274;19.000;2023-04-27T21:09:16;98631.41;;;5.94;39.96
64717;BME280;51146;50.274;19.000;2023-04-27T21:11:43;98627.06;;;5.91;40.21
64717;BME280;51146;50.274;19.000;2023-04-27T21:14:10;98625.53;;;5.87;40.05
64717;BME280;51146;50.274;19.000;2023-04-27T21:16:36;98623.97;;;5.83;40.40
64717;BME280;51146;50.274;19.000;2023-04-27T21:19:03;98620.63;;;5.79;40.46
64717;BME280;51146;50.274;19.000;2023-04-27T21:21:32;98628.25;;;5.71;40.94
64717;BME280;51146;50.274;19.000;2023-04-27T21:23:58;98626.84;;;5.64;40.78
64717;BME280;51146;50.274;19.000;2023-04-27T21:26:33;98632.84;;;5.53;41.20
64717;BME280;51146;50.274;19.000;2023-04-27T21:29:00;98631.44;;;5.46;40.88
64717;BME280;51146;50.274;19.000;2023-04-27T21:31:26;98624.53;;;5.42;41.01
64717;BME280;51146;50.274;19.000;2023-04-27T21:33:54;98627.44;;;5.37;41.31
64717;BME280;51146;50.274;19.000;2023-04-27T21:36:21;98630.47;;;5.31;41.62
64717;BME280;51146;50.274;19.000;2023-04-27T21:38:48;98633.34;;;5.28;41.59
64717;BME280;51146;50.274;19.000;2023-04-27T21:41:14;98631.88;;;5.22;41.48
64717;BME280;51146;50.274;19.000;2023-04-27T21:43:42;98644.63;;;5.17;41.69
64717;BME280;51146;50.274;19.000;2023-04-27T21:46:11;98638.66;;;5.12;41.85
64717;BME280;51146;50.274;19.000;2023-04-27T21:48:37;98647.66;;;5.11;41.87
64717;BME280;51146;50.274;19.000;2023-04-27T21:51:04;98641.41;;;5.11;41.79
64717;BME280;51146;50.274;19.000;2023-04-27T21:53:31;98647.47;;;5.14;41.83
64717;BME280;51146;50.274;19.000;2023-04-27T21:55:58;98649.91;;;5.19;41.66
64717;BME280;51146;50.274;19.000;2023-04-27T21:58:25;98646.97;;;5.23;41.89
64717;BME280;51146;50.274;19.000;2023-04-27T22:00:52;98644.91;;;5.29;41.63
64717;BME280;51146;50.274;19.000;2023-04-27T22:03:19;98641.13;;;5.33;41.88
64717;BME280;51146;50.274;19.000;2023-04-27T22:05:47;98640.00;;;5.37;41.94
64717;BME280;51146;50.274;19.000;2023-04-27T22:08:15;98632.66;;;5.40;41.68
64717;BME280;51146;50.274;19.000;2023-04-27T22:10:43;98639.47;;;5.46;41.93
64717;BME280;51146;50.274;19.000;2023-04-27T22:13:10;98634.75;;;5.51;41.42
64717;BME280;51146;50.274;19.000;2023-04-27T22:15:40;98638.88;;;5.57;41.39
64717;BME280;51146;50.274;19.000;2023-04-27T22:18:07;98644.06;;;5.60;41.57
64717;BME280;51146;50.274;19.000;2023-04-27T22:20:34;98626.06;;;5.62;41.14
64717;BME280;51146;50.274;19.000;2023-04-27T22:23:00;98638.69;;;5.60;40.96
64717;BME280;51146;50.274;19.000;2023-04-27T22:25:27;98634.19;;;5.60;41.14
64717;BME280;51146;50.274;19.000;2023-04-27T22:27:54;98637.84;;;5.59;41.26
64717;BME280;51146;50.274;19.000;2023-04-27T22:30:21;98645.09;;;5.57;41.46
64717;BME280;51146;50.274;19.000;2023-04-27T22:32:49;98634.75;;;5.51;41.56
64717;BME280;51146;50.274;19.000;2023-04-27T22:35:16;98638.44;;;5.49;41.38
64717;BME280;51146;50.274;19.000;2023-04-27T22:37:57;98637.59;;;5.48;41.39
64717;BME280;51146;50.274;19.000;2023-04-27T22:40:24;98638.72;;;5.44;41.43
64717;BME280;51146;50.274;19.000;2023-04-27T22:42:52;98645.88;;;5.44;41.29
64717;BME280;51146;50.274;19.000;2023-04-27T22:45:19;98642.16;;;5.46;41.45
64717;BME280;51146;50.274;19.000;2023-04-27T22:47:47;98635.69;;;5.50;41.47
64717;BME280;51146;50.274;19.000;2023-04-27T22:50:14;98639.22;;;5.51;41.78
64717;BME280;51146;50.274;19.000;2023-04-27T22:52:42;98634.75;;;5.51;41.59
64717;BME280;51146;50.274;19.000;2023-04-27T22:55:09;98638.09;;;5.55;41.45
64717;BME280;51146;50.274;19.000;2023-04-27T22:57:38;98643.97;;;5.61;42.01
64717;BME280;51146;50.274;19.000;2023-04-27T23:00:06;98636.56;;;5.67;42.05
64717;BME280;51146;50.274;19.000;2023-04-27T23:02:41;98640.78;;;5.71;41.96
64717;BME280;51146;50.274;19.000;2023-04-27T23:05:08;98633.44;;;5.74;41.67
64717;BME280;51146;50.274;19.000;2023-04-27T23:07:36;98640.34;;;5.78;41.89
64717;BME280;51146;50.274;19.000;2023-04-27T23:10:03;98636.63;;;5.81;41.54
64717;BME280;51146;50.274;19.000;2023-04-27T23:12:32;98638.16;;;5.85;41.82
64717;BME280;51146;50.274;19.000;2023-04-27T23:14:58;98636.94;;;5.91;41.61
64717;BME280;51146;50.274;19.000;2023-04-27T23:17:25;98641.16;;;5.95;41.50
64717;BME280;51146;50.274;19.000;2023-04-27T23:19:57;98638.41;;;5.96;41.46
64717;BME280;51146;50.274;19.000;2023-04-27T23:22:25;98634.66;;;5.99;41.19
64717;BME280;51146;50.274;19.000;2023-04-27T23:24:52;98639.94;;;6.00;41.17
64717;BME280;51146;50.274;19.000;2023-04-27T23:27:19;98632.28;;;5.94;41.15
64717;BME280;51146;50.274;19.000;2023-04-27T23:29:46;98634.59;;;6.00;41.07
64717;BME280;51146;50.274;19.000;2023-04-27T23:32:13;98637.88;;;6.06;41.20
64717;BME280;51146;50.274;19.000;2023-04-27T23:34:40;98639.19;;;5.98;40.83
64717;BME280;51146;50.274;19.000;2023-04-27T23:37:07;98632.81;;;5.85;41.24
64717;BME280;51146;50.274;19.000;2023-04-27T23:39:33;98637.06;;;5.73;41.68
64717;BME280;51146;50.274;19.000;2023-04-27T23:42:00;98636.19;;;5.73;42.05
64717;BME280;51146;50.274;19.000;2023-04-27T23:44:27;98627.97;;;5.76;42.53
64717;BME280;51146;50.274;19.000;2023-04-27T23:46:55;98631.34;;;5.79;41.91
64717;BME280;51146;50.274;19.000;2023-04-27T23:49:22;98625.19;;;5.77;41.91
64717;BME280;51146;50.274;19.000;2023-04-27T23:51:51;98618.28;;;5.73;42.04
64717;BME280;51146;50.274;19.000;2023-04-27T23:54:20;98616.66;;;5.71;42.54
64717;BME280;51146;50.274;19.000;2023-04-27T23:56:49;98617.78;;;5.67;42.44
64717;BME280;51146;50.274;19.000;2023-04-27T23:59:17;98614.16;;;5.68;42.65
